sensor_id;sensor_type;location;lat;lon;timestamp;P1;durP1;ratioP1;P2;durP2;ratioP2
60372;SDS011;46216;52.220;5.134;2023-04-23T00:01:59;168.23;;;52.88;;
60372;SDS011;46216;52.220;5.134;2023-04-23T00:04:26;187.27;;;53.03;;
60372;SDS011;46216;52.220;5.134;2023-04-23T00:06:52;162.13;;;52.10;;
60372;SDS011;46216;52.220;5.134;2023-04-23T00:09:18;167.82;;;53.13;;
60372;SDS011;46216;52.220;5.134;2023-04-23T00:11:47;178.10;;;53.33;;
60372;SDS011;46216;52.220;5.134;2023-04-23T00:14:12;174.20;;;54.55;;
60372;SDS011;46216;52.220;5.134;2023-04-23T00:16:38;162.15;;;51.25;;
60372;SDS011;46216;52.220;5.134;2023-04-23T00:19:04;177.93;;;53.08;;
60372;SDS011;46216;52.220;5.134;2023-04-23T00:21:29;168.98;;;54.00;;
60372;SDS011;46216;52.220;5.134;2023-04-23T00:23:56;178.30;;;54.80;;
60372;SDS011;46216;52.220;5.134;2023-04-23T00:26:21;176.65;;;53.47;;
60372;SDS011;46216;52.220;5.134;2023-04-23T00:28:47;180.68;;;54.40;;
60372;SDS011;46216;52.220;5.134;2023-04-23T00:31:12;180.05;;;52.65;;
60372;SDS011;46216;52.220;5.134;2023-04-23T00:33:37;187.32;;;56.13;;
60372;SDS011;46216;52.220;5.134;2023-04-23T00:36:02;184.93;;;54.33;;
60372;SDS011;46216;52.220;5.134;2023-04-23T00:38:28;173.57;;;53.80;;
60372;SDS011;46216;52.220;5.134;2023-04-23T00:40:53;187.00;;;55.13;;
60372;SDS011;46216;52.220;5.134;2023-04-23T00:43:19;189.02;;;54.53;;
60372;SDS011;46216;52.220;5.134;2023-04-23T00:45:44;177.73;;;54.63;;
60372;SDS011;46216;52.220;5.134;2023-04-23T00:48:10;174.95;;;53.28;;
60372;SDS011;46216;52.220;5.134;2023-04-23T00:50:36;180.05;;;53.65;;
60372;SDS011;46216;52.220;5.134;2023-04-23T00:53:01;175.82;;;54.17;;
60372;SDS011;46216;52.220;5.134;2023-04-23T00:55:26;192.70;;;54.92;;
60372;SDS011;46216;52.220;5.134;2023-04-23T00:57:52;189.60;;;55.20;;
60372;SDS011;46216;52.220;5.134;2023-04-23T01:00:18;189.35;;;53.65;;
60372;SDS011;46216;52.220;5.134;2023-04-23T01:02:44;197.35;;;54.67;;
60372;SDS011;46216;52.220;5.134;2023-04-23T01:05:13;196.95;;;56.08;;
60372;SDS011;46216;52.220;5.134;2023-04-23T01:07:41;190.27;;;56.13;;
60372;SDS011;46216;52.220;5.134;2023-04-23T01:10:08;194.50;;;55.88;;
60372;SDS011;46216;52.220;5.134;2023-04-23T01:12:34;207.38;;;55.47;;
60372;SDS011;46216;52.220;5.134;2023-04-23T01:15:00;188.50;;;56.10;;
60372;SDS011;46216;52.220;5.134;2023-04-23T01:17:26;190.73;;;56.80;;
60372;SDS011;46216;52.220;5.134;2023-04-23T01:19:51;183.48;;;55.20;;
60372;SDS011;46216;52.220;5.134;2023-04-23T01:22:17;180.75;;;53.88;;
60372;SDS011;46216;52.220;5.134;2023-04-23T01:24:42;185.15;;;54.08;;
60372;SDS011;46216;52.220;5.134;2023-04-23T01:27:08;195.32;;;55.20;;
60372;SDS011;46216;52.220;5.134;2023-04-23T01:29:35;182.93;;;52.53;;
60372;SDS011;46216;52.220;5.134;2023-04-23T01:32:01;182.20;;;54.92;;
60372;SDS011;46216;52.220;5.134;2023-04-23T01:34:28;187.27;;;55.35;;
60372;SDS011;46216;52.220;5.134;2023-04-23T01:36:54;188.02;;;55.05;;
60372;SDS011;46216;52.220;5.134;2023-04-23T01:39:21;186.43;;;53.78;;
60372;SDS011;46216;52.220;5.134;2023-04-23T01:41:47;182.10;;;53.53;;
60372;SDS011;46216;52.220;5.134;2023-04-23T01:44:12;173.63;;;53.83;;
60372;SDS011;46216;52.220;5.134;2023-04-23T01:46:38;171.23;;;51.85;;
60372;SDS011;46216;52.220;5.134;2023-04-23T01:49:03;191.50;;;53.80;;
60372;SDS011;46216;52.220;5.134;2023-04-23T01:51:29;168.13;;;52.10;;
60372;SDS011;46216;52.220;5.134;2023-04-23T01:53:54;168.05;;;52.90;;
60372;SDS011;46216;52.220;5.134;2023-04-23T01:56:21;156.68;;;51.45;;
60372;SDS011;46216;52.220;5.134;2023-04-23T01:58:50;164.90;;;52.22;;
60372;SDS011;46216;52.220;5.134;2023-04-23T02:01:16;156.55;;;49.03;;
60372;SDS011;46216;52.220;5.134;2023-04-23T02:03:41;155.07;;;50.20;;
60372;SDS011;46216;52.220;5.134;2023-04-23T02:06:07;154.93;;;51.60;;
60372;SDS011;46216;52.220;5.134;2023-04-23T02:08:32;157.65;;;49.83;;
60372;SDS011;46216;52.220;5.134;2023-04-23T02:10:59;151.85;;;48.63;;
60372;SDS011;46216;52.220;5.134;2023-04-23T02:13:25;148.25;;;48.28;;
60372;SDS011;46216;52.220;5.134;2023-04-23T02:15:50;148.57;;;47.63;;
60372;SDS011;46216;52.220;5.134;2023-04-23T02:18:16;135.15;;;46.17;;
60372;SDS011;46216;52.220;5.134;2023-04-23T02:20:41;141.73;;;46.83;;
60372;SDS011;46216;52.220;5.134;2023-04-23T02:23:07;145.85;;;47.28;;
60372;SDS011;46216;52.220;5.134;2023-04-23T02:25:32;140.55;;;46.08;;
60372;SDS011;46216;52.220;5.134;2023-04-23T02:27:58;138.63;;;46.38;;
60372;SDS011;46216;52.220;5.134;2023-04-23T02:30:25;131.10;;;45.60;;
60372;SDS011;46216;52.220;5.134;2023-04-23T02:32:51;137.65;;;46.13;;
60372;SDS011;46216;52.220;5.134;2023-04-23T02:35:16;130.45;;;45.67;;
60372;SDS011;46216;52.220;5.134;2023-04-23T02:37:42;130.45;;;45.60;;
60372;SDS011;46216;52.220;5.134;2023-04-23T02:40:07;126.80;;;44.95;;
60372;SDS011;46216;52.220;5.134;2023-04-23T02:42:33;122.47;;;42.75;;
60372;SDS011;46216;52.220;5.134;2023-04-23T02:44:58;118.45;;;44.38;;
60372;SDS011;46216;52.220;5.134;2023-04-23T02:47:24;123.55;;;43.58;;
60372;SDS011;46216;52.220;5.134;2023-04-23T02:49:49;128.10;;;44.28;;
60372;SDS011;46216;52.220;5.134;2023-04-23T02:52:14;119.57;;;43.30;;
60372;SDS011;46216;52.220;5.134;2023-04-23T02:54:40;119.80;;;42.65;;
60372;SDS011;46216;52.220;5.134;2023-04-23T02:57:05;127.78;;;43.63;;
60372;SDS011;46216;52.220;5.134;2023-04-23T02:59:31;115.03;;;43.50;;
60372;SDS011;46216;52.220;5.134;2023-04-23T03:01:56;115.20;;;43.15;;
60372;SDS011;46216;52.220;5.134;2023-04-23T03:04:22;115.55;;;43.30;;
60372;SDS011;46216;52.220;5.134;2023-04-23T03:06:47;115.65;;;42.53;;
60372;SDS011;46216;52.220;5.134;2023-04-23T03:09:13;116.05;;;42.80;;
60372;SDS011;46216;52.220;5.134;2023-04-23T03:11:39;121.38;;;44.00;;
60372;SDS011;46216;52.220;5.134;2023-04-23T03:14:04;123.22;;;44.67;;
60372;SDS011;46216;52.220;5.134;2023-04-23T03:16:30;122.28;;;43.38;;
60372;SDS011;46216;52.220;5.134;2023-04-23T03:18:56;114.13;;;43.25;;
60372;SDS011;46216;52.220;5.134;2023-04-23T03:21:22;111.68;;;42.42;;
60372;SDS011;46216;52.220;5.134;2023-04-23T03:23:47;111.63;;;43.72;;
60372;SDS011;46216;52.220;5.134;2023-04-23T03:26:12;112.20;;;41.42;;
60372;SDS011;46216;52.220;5.134;2023-04-23T03:28:37;111.32;;;40.75;;
60372;SDS011;46216;52.220;5.134;2023-04-23T03:31:03;107.55;;;40.72;;
60372;SDS011;46216;52.220;5.134;2023-04-23T03:33:28;104.75;;;41.00;;
60372;SDS011;46216;52.220;5.134;2023-04-23T03:35:53;106.38;;;42.08;;
60372;SDS011;46216;52.220;5.134;2023-04-23T03:38:19;107.07;;;40.92;;
60372;SDS011;46216;52.220;5.134;2023-04-23T03:40:44;106.03;;;42.63;;
60372;SDS011;46216;52.220;5.134;2023-04-23T03:43:10;110.88;;;40.55;;
60372;SDS011;46216;52.220;5.134;2023-04-23T03:45:35;95.72;;;40.05;;
60372;SDS011;46216;52.220;5.134;2023-04-23T03:48:01;104.32;;;42.03;;
60372;SDS011;46216;52.220;5.134;2023-04-23T03:50:26;98.60;;;39.90;;
60372;SDS011;46216;52.220;5.134;2023-04-23T03:52:51;86.18;;;38.95;;
60372;SDS011;46216;52.220;5.134;2023-04-23T03:55:17;97.55;;;39.92;;
60372;SDS011;46216;52.220;5.134;2023-04-23T03:57:42;95.97;;;38.35;;
60372;SDS011;46216;52.220;5.134;2023-04-23T04:00:08;91.82;;;38.80;;
60372;SDS011;46216;52.220;5.134;2023-04-23T04:02:36;85.15;;;37.28;;
60372;SDS011;46216;52.220;5.134;2023-04-23T04:05:02;80.65;;;37.38;;
60372;SDS011;46216;52.220;5.134;2023-04-23T04:07:28;89.97;;;38.92;;
60372;SDS011;46216;52.220;5.134;2023-04-23T04:09:53;84.78;;;37.17;;
60372;SDS011;46216;52.220;5.134;2023-04-23T04:12:18;91.60;;;38.00;;
60372;SDS011;46216;52.220;5.134;2023-04-23T04:14:44;84.50;;;36.05;;
60372;SDS011;46216;52.220;5.134;2023-04-23T04:17:09;91.22;;;38.50;;
60372;SDS011;46216;52.220;5.134;2023-04-23T04:19:36;83.35;;;36.80;;
60372;SDS011;46216;52.220;5.134;2023-04-23T04:22:01;85.15;;;37.50;;
60372;SDS011;46216;52.220;5.134;2023-04-23T04:24:27;88.85;;;38.10;;
60372;SDS011;46216;52.220;5.134;2023-04-23T04:26:56;96.13;;;38.65;;
60372;SDS011;46216;52.220;5.134;2023-04-23T04:29:24;90.45;;;37.40;;
60372;SDS011;46216;52.220;5.134;2023-04-23T04:31:50;85.28;;;37.83;;
60372;SDS011;46216;52.220;5.134;2023-04-23T04:34:16;88.90;;;38.75;;
60372;SDS011;46216;52.220;5.134;2023-04-23T04:36:42;84.45;;;37.13;;
60372;SDS011;46216;52.220;5.134;2023-04-23T04:39:08;83.07;;;37.05;;
60372;SDS011;46216;52.220;5.134;2023-04-23T04:41:35;84.10;;;37.65;;
60372;SDS011;46216;52.220;5.134;2023-04-23T04:44:01;81.22;;;36.95;;
60372;SDS011;46216;52.220;5.134;2023-04-23T04:46:26;81.93;;;36.50;;
60372;SDS011;46216;52.220;5.134;2023-04-23T04:48:53;83.95;;;36.80;;
60372;SDS011;46216;52.220;5.134;2023-04-23T04:51:18;76.00;;;35.75;;
60372;SDS011;46216;52.220;5.134;2023-04-23T04:53:44;75.90;;;35.65;;
60372;SDS011;46216;52.220;5.134;2023-04-23T04:56:09;79.72;;;36.28;;
60372;SDS011;46216;52.220;5.134;2023-04-23T04:58:35;78.50;;;35.58;;
60372;SDS011;46216;52.220;5.134;2023-04-23T05:01:00;75.40;;;36.08;;
60372;SDS011;46216;52.220;5.134;2023-04-23T05:03:25;75.30;;;35.72;;
60372;SDS011;46216;52.220;5.134;2023-04-23T05:05:51;72.43;;;34.55;;
60372;SDS011;46216;52.220;5.134;2023-04-23T05:08:20;64.97;;;33.42;;
60372;SDS011;46216;52.220;5.134;2023-04-23T05:10:45;67.30;;;34.45;;
60372;SDS011;46216;52.220;5.134;2023-04-23T05:13:11;65.43;;;33.63;;
60372;SDS011;46216;52.220;5.134;2023-04-23T05:15:36;69.30;;;34.78;;
60372;SDS011;46216;52.220;5.134;2023-04-23T05:18:02;61.15;;;33.70;;
60372;SDS011;46216;52.220;5.134;2023-04-23T05:20:28;66.72;;;32.55;;
60372;SDS011;46216;52.220;5.134;2023-04-23T05:22:54;67.28;;;32.42;;
60372;SDS011;46216;52.220;5.134;2023-04-23T05:25:19;64.43;;;33.38;;
60372;SDS011;46216;52.220;5.134;2023-04-23T05:27:45;62.47;;;32.38;;
60372;SDS011;46216;52.220;5.134;2023-04-23T05:30:10;61.78;;;32.83;;
60372;SDS011;46216;52.220;5.134;2023-04-23T05:32:36;63.47;;;33.38;;
60372;SDS011;46216;52.220;5.134;2023-04-23T05:35:03;62.65;;;33.33;;
60372;SDS011;46216;52.220;5.134;2023-04-23T05:37:28;60.13;;;32.40;;
60372;SDS011;46216;52.220;5.134;2023-04-23T05:39:54;60.60;;;32.88;;
60372;SDS011;46216;52.220;5.134;2023-04-23T05:42:19;63.70;;;33.28;;
60372;SDS011;46216;52.220;5.134;2023-04-23T05:44:45;57.30;;;32.72;;
60372;SDS011;46216;52.220;5.134;2023-04-23T05:47:11;62.95;;;32.88;;
60372;SDS011;46216;52.220;5.134;2023-04-23T05:49:37;63.20;;;33.65;;
60372;SDS011;46216;52.220;5.134;2023-04-23T05:52:03;61.75;;;32.80;;
60372;SDS011;46216;52.220;5.134;2023-04-23T05:54:28;62.15;;;32.75;;
60372;SDS011;46216;52.220;5.134;2023-04-23T05:56:53;57.85;;;31.77;;
60372;SDS011;46216;52.220;5.134;2023-04-23T05:59:19;56.28;;;31.73;;
60372;SDS011;46216;52.220;5.134;2023-04-23T06:01:45;58.20;;;32.67;;
60372;SDS011;46216;52.220;5.134;2023-04-23T06:04:11;54.45;;;30.42;;
60372;SDS011;46216;52.220;5.134;2023-04-23T06:06:37;55.08;;;31.98;;
60372;SDS011;46216;52.220;5.134;2023-04-23T06:09:03;51.45;;;31.08;;
60372;SDS011;46216;52.220;5.134;2023-04-23T06:11:28;55.55;;;31.60;;
60372;SDS011;46216;52.220;5.134;2023-04-23T06:13:56;52.08;;;31.13;;
60372;SDS011;46216;52.220;5.134;2023-04-23T06:16:21;47.05;;;30.67;;
60372;SDS011;46216;52.220;5.134;2023-04-23T06:18:47;52.97;;;30.90;;
60372;SDS011;46216;52.220;5.134;2023-04-23T06:21:13;46.88;;;31.13;;
60372;SDS011;46216;52.220;5.134;2023-04-23T06:23:39;45.38;;;29.10;;
60372;SDS011;46216;52.220;5.134;2023-04-23T06:26:04;44.50;;;30.00;;
60372;SDS011;46216;52.220;5.134;2023-04-23T06:28:30;43.45;;;30.05;;
60372;SDS011;46216;52.220;5.134;2023-04-23T06:30:55;42.45;;;28.95;;
60372;SDS011;46216;52.220;5.134;2023-04-23T06:33:21;41.53;;;29.15;;
60372;SDS011;46216;52.220;5.134;2023-04-23T06:35:46;41.72;;;28.05;;
60372;SDS011;46216;52.220;5.134;2023-04-23T06:38:11;39.05;;;27.00;;
60372;SDS011;46216;52.220;5.134;2023-04-23T06:40:37;39.13;;;27.25;;
60372;SDS011;46216;52.220;5.134;2023-04-23T06:43:02;39.33;;;27.00;;
60372;SDS011;46216;52.220;5.134;2023-04-23T06:45:32;34.30;;;24.63;;
60372;SDS011;46216;52.220;5.134;2023-04-23T06:47:58;34.63;;;24.90;;
60372;SDS011;46216;52.220;5.134;2023-04-23T06:50:24;36.83;;;25.67;;
60372;SDS011;46216;52.220;5.134;2023-04-23T06:52:49;32.88;;;24.83;;
60372;SDS011;46216;52.220;5.134;2023-04-23T06:55:15;33.88;;;24.23;;
60372;SDS011;46216;52.220;5.134;2023-04-23T06:57:40;28.17;;;22.13;;
60372;SDS011;46216;52.220;5.134;2023-04-23T07:00:06;29.73;;;23.48;;
60372;SDS011;46216;52.220;5.134;2023-04-23T07:02:33;28.40;;;22.67;;
60372;SDS011;46216;52.220;5.134;2023-04-23T07:04:58;27.73;;;22.02;;
60372;SDS011;46216;52.220;5.134;2023-04-23T07:07:24;28.17;;;21.90;;
60372;SDS011;46216;52.220;5.134;2023-04-23T07:09:50;27.08;;;19.45;;
60372;SDS011;46216;52.220;5.134;2023-04-23T07:12:15;26.33;;;20.85;;
60372;SDS011;46216;52.220;5.134;2023-04-23T07:14:40;23.95;;;19.65;;
60372;SDS011;46216;52.220;5.134;2023-04-23T07:17:06;25.80;;;18.48;;
60372;SDS011;46216;52.220;5.134;2023-04-23T07:19:31;19.33;;;16.10;;
60372;SDS011;46216;52.220;5.134;2023-04-23T07:21:56;16.83;;;13.82;;
60372;SDS011;46216;52.220;5.134;2023-04-23T07:24:22;16.27;;;14.07;;
60372;SDS011;46216;52.220;5.134;2023-04-23T07:26:47;16.63;;;12.55;;
60372;SDS011;46216;52.220;5.134;2023-04-23T07:29:12;14.05;;;12.27;;
60372;SDS011;46216;52.220;5.134;2023-04-23T07:31:39;14.75;;;11.80;;
60372;SDS011;46216;52.220;5.134;2023-04-23T07:34:07;14.55;;;11.27;;
60372;SDS011;46216;52.220;5.134;2023-04-23T07:36:33;16.00;;;11.82;;
60372;SDS011;46216;52.220;5.134;2023-04-23T07:38:59;17.80;;;11.48;;
60372;SDS011;46216;52.220;5.134;2023-04-23T07:41:24;14.27;;;11.02;;
60372;SDS011;46216;52.220;5.134;2023-04-23T07:43:50;12.25;;;10.30;;
60372;SDS011;46216;52.220;5.134;2023-04-23T07:46:15;12.00;;;9.98;;
60372;SDS011;46216;52.220;5.134;2023-04-23T07:48:40;12.63;;;9.95;;
60372;SDS011;46216;52.220;5.134;2023-04-23T07:51:06;13.55;;;9.95;;
60372;SDS011;46216;52.220;5.134;2023-04-23T07:53:32;10.48;;;9.18;;
60372;SDS011;46216;52.220;5.134;2023-04-23T07:55:58;13.52;;;9.30;;
60372;SDS011;46216;52.220;5.134;2023-04-23T07:58:24;13.90;;;9.90;;
60372;SDS011;46216;52.220;5.134;2023-04-23T08:00:49;11.30;;;9.20;;
60372;SDS011;46216;52.220;5.134;2023-04-23T08:03:15;12.18;;;8.75;;
60372;SDS011;46216;52.220;5.134;2023-04-23T08:05:40;12.18;;;9.05;;
60372;SDS011;46216;52.220;5.134;2023-04-23T08:08:06;12.57;;;9.20;;
60372;SDS011;46216;52.220;5.134;2023-04-23T08:10:32;13.85;;;8.60;;
60372;SDS011;46216;52.220;5.134;2023-04-23T08:12:58;12.98;;;8.18;;
60372;SDS011;46216;52.220;5.134;2023-04-23T08:15:24;10.98;;;7.53;;
60372;SDS011;46216;52.220;5.134;2023-04-23T08:17:49;11.93;;;7.97;;
60372;SDS011;46216;52.220;5.134;2023-04-23T08:20:15;11.40;;;7.15;;
60372;SDS011;46216;52.220;5.134;2023-04-23T08:22:40;11.13;;;7.00;;
60372;SDS011;46216;52.220;5.134;2023-04-23T08:25:06;10.18;;;7.15;;
60372;SDS011;46216;52.220;5.134;2023-04-23T08:27:31;11.85;;;7.03;;
60372;SDS011;46216;52.220;5.134;2023-04-23T08:29:57;11.00;;;6.88;;
60372;SDS011;46216;52.220;5.134;2023-04-23T08:32:22;9.80;;;6.25;;
60372;SDS011;46216;52.220;5.134;2023-04-23T08:34:48;9.68;;;5.97;;
60372;SDS011;46216;52.220;5.134;2023-04-23T08:37:13;12.95;;;6.18;;
60372;SDS011;46216;52.220;5.134;2023-04-23T08:39:38;10.60;;;7.07;;
60372;SDS011;46216;52.220;5.134;2023-04-23T08:42:09;11.50;;;6.97;;
60372;SDS011;46216;52.220;5.134;2023-04-23T08:44:40;10.68;;;6.93;;
60372;SDS011;46216;52.220;5.134;2023-04-23T08:47:06;9.98;;;5.70;;
60372;SDS011;46216;52.220;5.134;2023-04-23T08:49:33;8.60;;;5.50;;
60372;SDS011;46216;52.220;5.134;2023-04-23T08:52:02;8.23;;;5.30;;
60372;SDS011;46216;52.220;5.134;2023-04-23T08:54:35;11.80;;;6.20;;
60372;SDS011;46216;52.220;5.134;2023-04-23T08:57:05;10.57;;;5.72;;
60372;SDS011;46216;52.220;5.134;2023-04-23T08:59:33;6.80;;;5.28;;
60372;SDS011;46216;52.220;5.134;2023-04-23T09:02:00;10.85;;;5.50;;
60372;SDS011;46216;52.220;5.134;2023-04-23T09:04:32;7.18;;;4.75;;
60372;SDS011;46216;52.220;5.134;2023-04-23T09:06:58;6.50;;;4.32;;
60372;SDS011;46216;52.220;5.134;2023-04-23T09:09:24;10.10;;;4.55;;
60372;SDS011;46216;52.220;5.134;2023-04-23T09:11:52;9.50;;;4.65;;
60372;SDS011;46216;52.220;5.134;2023-04-23T09:14:17;10.18;;;5.53;;
60372;SDS011;46216;52.220;5.134;2023-04-23T09:16:43;11.10;;;5.15;;
60372;SDS011;46216;52.220;5.134;2023-04-23T09:19:09;9.35;;;4.97;;
60372;SDS011;46216;52.220;5.134;2023-04-23T09:21:35;7.18;;;3.90;;
60372;SDS011;46216;52.220;5.134;2023-04-23T09:24:08;10.23;;;4.07;;
60372;SDS011;46216;52.220;5.134;2023-04-23T09:26:35;12.05;;;4.85;;
60372;SDS011;46216;52.220;5.134;2023-04-23T09:29:11;11.77;;;4.75;;
60372;SDS011;46216;52.220;5.134;2023-04-23T09:31:44;10.10;;;4.22;;
60372;SDS011;46216;52.220;5.134;2023-04-23T09:34:11;9.80;;;4.22;;
60372;SDS011;46216;52.220;5.134;2023-04-23T09:36:40;9.00;;;4.30;;
60372;SDS011;46216;52.220;5.134;2023-04-23T09:39:16;9.65;;;4.47;;
60372;SDS011;46216;52.220;5.134;2023-04-23T09:41:43;8.50;;;4.00;;
60372;SDS011;46216;52.220;5.134;2023-04-23T09:44:19;8.93;;;4.25;;
60372;SDS011;46216;52.220;5.134;2023-04-23T09:46:50;7.30;;;3.80;;
60372;SDS011;46216;52.220;5.134;2023-04-23T09:49:16;9.45;;;4.80;;
60372;SDS011;46216;52.220;5.134;2023-04-23T09:51:42;7.93;;;3.45;;
60372;SDS011;46216;52.220;5.134;2023-04-23T09:56:43;8.90;;;3.92;;
60372;SDS011;46216;52.220;5.134;2023-04-23T09:59:19;8.63;;;3.20;;
60372;SDS011;46216;52.220;5.134;2023-04-23T10:01:49;9.02;;;3.15;;
60372;SDS011;46216;52.220;5.134;2023-04-23T10:04:18;8.02;;;3.25;;
60372;SDS011;46216;52.220;5.134;2023-04-23T10:06:45;8.75;;;3.45;;
60372;SDS011;46216;52.220;5.134;2023-04-23T10:09:12;7.45;;;3.20;;
60372;SDS011;46216;52.220;5.134;2023-04-23T10:11:37;7.43;;;2.95;;
60372;SDS011;46216;52.220;5.134;2023-04-23T10:14:04;8.32;;;3.25;;
60372;SDS011;46216;52.220;5.134;2023-04-23T10:16:30;9.10;;;3.53;;
60372;SDS011;46216;52.220;5.134;2023-04-23T10:18:55;8.93;;;3.08;;
60372;SDS011;46216;52.220;5.134;2023-04-23T10:21:25;7.13;;;3.05;;
60372;SDS011;46216;52.220;5.134;2023-04-23T10:23:54;8.25;;;3.28;;
60372;SDS011;46216;52.220;5.134;2023-04-23T10:26:22;9.45;;;3.30;;
60372;SDS011;46216;52.220;5.134;2023-04-23T10:28:50;9.95;;;3.30;;
60372;SDS011;46216;52.220;5.134;2023-04-23T10:31:19;8.20;;;3.03;;
60372;SDS011;46216;52.220;5.134;2023-04-23T10:33:46;9.63;;;3.22;;
60372;SDS011;46216;52.220;5.134;2023-04-23T10:36:12;6.15;;;2.72;;
60372;SDS011;46216;52.220;5.134;2023-04-23T10:38:39;6.97;;;2.67;;
60372;SDS011;46216;52.220;5.134;2023-04-23T10:41:05;5.95;;;2.90;;
60372;SDS011;46216;52.220;5.134;2023-04-23T10:43:32;4.55;;;2.30;;
60372;SDS011;46216;52.220;5.134;2023-04-23T10:45:59;7.65;;;2.25;;
60372;SDS011;46216;52.220;5.134;2023-04-23T10:48:26;8.63;;;2.45;;
60372;SDS011;46216;52.220;5.134;2023-04-23T10:50:58;5.45;;;2.20;;
60372;SDS011;46216;52.220;5.134;2023-04-23T10:53:23;8.73;;;2.33;;
60372;SDS011;46216;52.220;5.134;2023-04-23T10:55:50;7.47;;;2.17;;
60372;SDS011;46216;52.220;5.134;2023-04-23T10:58:46;8.63;;;2.20;;
60372;SDS011;46216;52.220;5.134;2023-04-23T11:01:13;5.90;;;2.25;;
60372;SDS011;46216;52.220;5.134;2023-04-23T11:03:38;6.32;;;2.13;;
60372;SDS011;46216;52.220;5.134;2023-04-23T11:06:06;4.93;;;1.90;;
60372;SDS011;46216;52.220;5.134;2023-04-23T11:08:35;5.07;;;2.42;;
60372;SDS011;46216;52.220;5.134;2023-04-23T11:11:01;7.80;;;2.33;;
60372;SDS011;46216;52.220;5.134;2023-04-23T11:13:31;6.72;;;1.92;;
60372;SDS011;46216;52.220;5.134;2023-04-23T11:18:54;6.85;;;1.98;;
60372;SDS011;46216;52.220;5.134;2023-04-23T11:24:30;7.05;;;2.00;;
60372;SDS011;46216;52.220;5.134;2023-04-23T11:27:13;6.68;;;2.42;;
60372;SDS011;46216;52.220;5.134;2023-04-23T11:29:40;7.75;;;2.55;;
60372;SDS011;46216;52.220;5.134;2023-04-23T11:32:08;5.85;;;1.95;;
60372;SDS011;46216;52.220;5.134;2023-04-23T11:34:43;3.55;;;1.60;;
60372;SDS011;46216;52.220;5.134;2023-04-23T11:37:10;4.78;;;1.85;;
60372;SDS011;46216;52.220;5.134;2023-04-23T11:39:39;5.60;;;1.83;;
60372;SDS011;46216;52.220;5.134;2023-04-23T11:42:09;3.95;;;1.58;;
60372;SDS011;46216;52.220;5.134;2023-04-23T11:44:36;6.00;;;1.70;;
60372;SDS011;46216;52.220;5.134;2023-04-23T11:47:02;4.03;;;1.50;;
60372;SDS011;46216;52.220;5.134;2023-04-23T11:49:27;5.53;;;1.70;;
60372;SDS011;46216;52.220;5.134;2023-04-23T11:51:53;5.88;;;1.88;;
60372;SDS011;46216;52.220;5.134;2023-04-23T11:54:18;4.65;;;1.67;;
60372;SDS011;46216;52.220;5.134;2023-04-23T11:56:51;4.85;;;1.90;;
60372;SDS011;46216;52.220;5.134;2023-04-23T11:59:17;4.82;;;1.60;;
60372;SDS011;46216;52.220;5.134;2023-04-23T12:01:44;6.50;;;1.40;;
60372;SDS011;46216;52.220;5.134;2023-04-23T12:04:11;5.07;;;1.60;;
60372;SDS011;46216;52.220;5.134;2023-04-23T12:06:37;3.42;;;1.40;;
60372;SDS011;46216;52.220;5.134;2023-04-23T12:09:02;5.88;;;1.50;;
60372;SDS011;46216;52.220;5.134;2023-04-23T12:11:28;3.83;;;1.50;;
60372;SDS011;46216;52.220;5.134;2023-04-23T12:13:53;5.28;;;1.33;;
60372;SDS011;46216;52.220;5.134;2023-04-23T12:16:18;2.85;;;1.33;;
60372;SDS011;46216;52.220;5.134;2023-04-23T12:18:58;5.57;;;1.63;;
60372;SDS011;46216;52.220;5.134;2023-04-23T12:21:25;6.55;;;1.60;;
60372;SDS011;46216;52.220;5.134;2023-04-23T12:23:52;4.53;;;1.38;;
60372;SDS011;46216;52.220;5.134;2023-04-23T12:26:18;4.97;;;1.50;;
60372;SDS011;46216;52.220;5.134;2023-04-23T12:28:54;3.92;;;1.50;;
60372;SDS011;46216;52.220;5.134;2023-04-23T12:31:26;4.05;;;1.30;;
60372;SDS011;46216;52.220;5.134;2023-04-23T12:36:30;5.15;;;1.50;;
60372;SDS011;46216;52.220;5.134;2023-04-23T12:41:44;6.97;;;1.70;;
60372;SDS011;46216;52.220;5.134;2023-04-23T12:44:10;5.50;;;1.45;;
60372;SDS011;46216;52.220;5.134;2023-04-23T12:46:35;3.60;;;1.27;;
60372;SDS011;46216;52.220;5.134;2023-04-23T12:49:01;5.10;;;1.80;;
60372;SDS011;46216;52.220;5.134;2023-04-23T12:51:26;4.38;;;1.40;;
60372;SDS011;46216;52.220;5.134;2023-04-23T12:53:51;5.50;;;1.40;;
60372;SDS011;46216;52.220;5.134;2023-04-23T12:56:17;4.28;;;1.65;;
60372;SDS011;46216;52.220;5.134;2023-04-23T12:58:42;4.10;;;1.60;;
60372;SDS011;46216;52.220;5.134;2023-04-23T13:01:07;4.57;;;1.40;;
60372;SDS011;46216;52.220;5.134;2023-04-23T13:03:35;3.78;;;1.40;;
60372;SDS011;46216;52.220;5.134;2023-04-23T13:06:00;4.15;;;1.58;;
60372;SDS011;46216;52.220;5.134;2023-04-23T13:08:26;5.20;;;1.60;;
60372;SDS011;46216;52.220;5.134;2023-04-23T13:10:51;5.10;;;1.75;;
60372;SDS011;46216;52.220;5.134;2023-04-23T13:13:16;3.00;;;1.52;;
60372;SDS011;46216;52.220;5.134;2023-04-23T13:15:42;4.18;;;1.70;;
60372;SDS011;46216;52.220;5.134;2023-04-23T13:18:07;6.43;;;1.63;;
60372;SDS011;46216;52.220;5.134;2023-04-23T13:20:32;6.97;;;1.60;;
60372;SDS011;46216;52.220;5.134;2023-04-23T13:22:58;5.72;;;1.55;;
60372;SDS011;46216;52.220;5.134;2023-04-23T13:25:23;6.72;;;1.73;;
60372;SDS011;46216;52.220;5.134;2023-04-23T13:27:48;2.83;;;1.20;;
60372;SDS011;46216;52.220;5.134;2023-04-23T13:30:14;2.47;;;1.33;;
60372;SDS011;46216;52.220;5.134;2023-04-23T13:32:39;3.75;;;1.33;;
60372;SDS011;46216;52.220;5.134;2023-04-23T13:35:05;3.88;;;1.45;;
60372;SDS011;46216;52.220;5.134;2023-04-23T13:37:31;4.15;;;1.73;;
60372;SDS011;46216;52.220;5.134;2023-04-23T13:39:57;2.90;;;1.35;;
60372;SDS011;46216;52.220;5.134;2023-04-23T13:42:22;5.15;;;1.88;;
60372;SDS011;46216;52.220;5.134;2023-04-23T13:44:48;4.85;;;1.60;;
60372;SDS011;46216;52.220;5.134;2023-04-23T13:47:13;9.45;;;2.05;;
60372;SDS011;46216;52.220;5.134;2023-04-23T13:49:38;8.85;;;2.90;;
60372;SDS011;46216;52.220;5.134;2023-04-23T13:52:04;3.47;;;1.67;;
60372;SDS011;46216;52.220;5.134;2023-04-23T13:54:30;5.28;;;1.88;;
60372;SDS011;46216;52.220;5.134;2023-04-23T13:56:56;3.78;;;1.80;;
60372;SDS011;46216;52.220;5.134;2023-04-23T13:59:22;5.45;;;1.75;;
60372;SDS011;46216;52.220;5.134;2023-04-23T14:01:48;3.92;;;1.80;;
60372;SDS011;46216;52.220;5.134;2023-04-23T14:04:14;4.40;;;1.85;;
60372;SDS011;46216;52.220;5.134;2023-04-23T14:06:40;3.38;;;1.60;;
60372;SDS011;46216;52.220;5.134;2023-04-23T14:09:06;5.22;;;2.40;;
60372;SDS011;46216;52.220;5.134;2023-04-23T14:11:32;4.53;;;2.20;;
60372;SDS011;46216;52.220;5.134;2023-04-23T14:13:58;4.03;;;2.50;;
60372;SDS011;46216;52.220;5.134;2023-04-23T14:16:25;5.60;;;2.42;;
60372;SDS011;46216;52.220;5.134;2023-04-23T14:18:50;5.35;;;2.20;;
60372;SDS011;46216;52.220;5.134;2023-04-23T14:21:15;5.75;;;2.47;;
60372;SDS011;46216;52.220;5.134;2023-04-23T14:26:09;6.22;;;2.90;;
60372;SDS011;46216;52.220;5.134;2023-04-23T14:28:43;6.95;;;2.67;;
60372;SDS011;46216;52.220;5.134;2023-04-23T14:31:10;6.15;;;2.28;;
60372;SDS011;46216;52.220;5.134;2023-04-23T14:33:35;4.65;;;2.40;;
60372;SDS011;46216;52.220;5.134;2023-04-23T14:36:01;4.15;;;2.40;;
60372;SDS011;46216;52.220;5.134;2023-04-23T14:38:26;4.30;;;2.00;;
60372;SDS011;46216;52.220;5.134;2023-04-23T14:40:52;7.47;;;2.45;;